Time;durP1;ratioP1;P1;durP2;ratioP2;P2;SDS_P1;SDS_P2;PMS_P1;PMS_P2;Temp;Humidity;BMP_temperature;BMP_pressure;BME280_temperature;BME280_humidity;BME280_pressure;Samples;Min_cycle;Max_cycle;Signal;HPM_P1;HPM_P2
2024/04/11 00:01:35;;;;;;;;;;;;;;;16.32;53.85;101400.53;5350347;26;1779;-54
2024/04/11 00:04:01;;;;;;;;;;;;;;;17.46;51.69;101411.53;5350414;26;1179;-56
2024/04/11 00:06:26;;;;;;;;;;;;;;;17.38;51.58;101407.34;5350169;26;1266;-54
2024/04/11 00:08:52;;;;;;;;;;;;;;;16.81;52.85;101408.75;5350590;26;1462;-54
2024/04/11 00:11:18;;;;;;;;;;;;;;;16.55;53.52;101399.41;5349851;26;1235;-54
2024/04/11 00:13:44;;;;;;;;;;;;;;;16.40;53.70;101403.66;5350068;26;1279;-55
2024/04/11 00:16:10;;;;;;;;;;;;;;;16.16;53.80;101407.72;5350216;26;1822;-55
2024/04/11 00:18:35;;;;;;;;;;;;;;;17.30;52.25;101409.75;5350470;26;1184;-55
2024/04/11 00:21:02;;;;;;;;;;;;;;;17.34;51.56;101402.63;5349843;26;1239;-56
2024/04/11 00:23:28;;;;;;;;;;;;;;;16.70;53.09;101407.78;5350105;26;1267;-55
2024/04/11 00:25:57;;;;;;;;;;;;;;;16.40;53.69;101398.16;5350179;26;1291;-55
2024/04/11 00:28:23;;;;;;;;;;;;;;;16.31;53.59;101396.13;5350287;26;1255;-55
2024/04/11 00:30:48;;;;;;;;;;;;;;;16.16;54.31;101402.25;5350141;26;1216;-55
2024/04/11 00:33:14;;;;;;;;;;;;;;;17.71;50.97;101399.03;5351839;26;1176;-55
2024/04/11 00:35:40;;;;;;;;;;;;;;;17.15;52.06;101408.50;5352320;26;1160;-54
2024/04/11 00:38:10;;;;;;;;;;;;;;;16.68;53.06;101409.16;5323360;26;1862;-52
2024/04/11 00:40:36;;;;;;;;;;;;;;;16.42;53.54;101411.63;5352676;26;1184;-55
2024/04/11 00:43:01;;;;;;;;;;;;;;;16.21;53.94;101405.06;5352947;26;1172;-54
2024/04/11 00:45:27;;;;;;;;;;;;;;;16.29;53.74;101412.84;5353801;26;1124;-52
2024/04/11 00:47:52;;;;;;;;;;;;;;;17.74;50.66;101403.97;5322531;26;1233;-53
2024/04/11 00:50:18;;;;;;;;;;;;;;;17.16;52.01;101414.84;5329624;26;1219;-54
2024/04/11 00:52:45;;;;;;;;;;;;;;;16.67;53.03;101419.31;5322643;26;1294;-53
2024/04/11 00:55:10;;;;;;;;;;;;;;;16.36;53.69;101418.97;5352768;26;1216;-55
2024/04/11 00:57:36;;;;;;;;;;;;;;;16.18;53.77;101422.03;5322529;26;1870;-55
2024/04/11 01:00:02;;;;;;;;;;;;;;;16.34;53.84;101414.81;5322265;26;1407;-54
2024/04/11 01:02:28;;;;;;;;;;;;;;;17.83;50.42;101418.09;5352622;26;1160;-51
2024/04/11 01:04:53;;;;;;;;;;;;;;;17.13;51.75;101416.22;5352714;26;1306;-54
2024/04/11 01:07:19;;;;;;;;;;;;;;;16.60;53.11;101408.53;5353103;26;1282;-54
2024/04/11 01:09:45;;;;;;;;;;;;;;;16.34;53.69;101412.91;5352948;26;1260;-53
2024/04/11 01:12:14;;;;;;;;;;;;;;;16.15;53.84;101417.06;5351839;26;1144;-52
2024/04/11 01:14:43;;;;;;;;;;;;;;;16.33;53.94;101413.19;5352527;26;1235;-55
2024/04/11 01:17:10;;;;;;;;;;;;;;;17.81;50.37;101414.75;5352686;26;1822;-55
2024/04/11 01:19:36;;;;;;;;;;;;;;;16.85;52.55;101418.13;5352510;26;1385;-53
2024/04/11 01:22:02;;;;;;;;;;;;;;;16.54;53.05;101416.97;5352777;26;1263;-54
2024/04/11 01:24:27;;;;;;;;;;;;;;;16.25;53.58;101415.25;5352313;26;1247;-55
2024/04/11 01:26:54;;;;;;;;;;;;;;;16.70;53.17;101417.97;5352323;26;1161;-55
2024/04/11 01:29:20;;;;;;;;;;;;;;;17.78;50.10;101405.97;5352452;26;1141;-53
2024/04/11 01:31:45;;;;;;;;;;;;;;;16.89;52.23;101415.72;5352677;26;1285;-55
2024/04/11 01:34:11;;;;;;;;;;;;;;;16.51;53.04;101412.84;5352555;26;1231;-54
2024/04/11 01:36:36;;;;;;;;;;;;;;;16.31;53.41;101410.66;5352069;26;1831;-54
2024/04/11 01:39:09;;;;;;;;;;;;;;;16.14;53.68;101429.94;5352268;26;1263;-54
2024/04/11 01:41:36;;;;;;;;;;;;;;;17.20;51.78;101424.25;5352330;26;1275;-52
2024/04/11 01:44:02;;;;;;;;;;;;;;;17.38;50.81;101418.34;5351532;26;1120;-53
2024/04/11 01:46:28;;;;;;;;;;;;;;;16.66;52.80;101425.06;5352203;26;1184;-53
2024/04/11 01:48:53;;;;;;;;;;;;;;;16.29;53.74;101423.00;5352170;26;1184;-54
2024/04/11 01:51:19;;;;;;;;;;;;;;;16.25;53.63;101433.66;5352619;26;1173;-54
2024/04/11 01:53:45;;;;;;;;;;;;;;;16.41;53.64;101424.53;5352126;26;1223;-54
2024/04/11 01:56:11;;;;;;;;;;;;;;;17.78;50.02;101416.97;5352140;26;1814;-54
2024/04/11 01:58:37;;;;;;;;;;;;;;;16.84;52.38;101429.38;5352370;26;1120;-56
2024/04/11 02:01:09;;;;;;;;;;;;;;;16.54;53.01;101427.97;5352019;26;1048;-53
2024/04/11 02:03:38;;;;;;;;;;;;;;;16.36;53.29;101424.47;5351727;26;1228;-53
2024/04/11 02:06:04;;;;;;;;;;;;;;;16.05;53.79;101437.78;5352337;26;1211;-54
2024/04/11 02:08:32;;;;;;;;;;;;;;;16.94;52.35;101440.47;5352041;26;1239;-55
2024/04/11 02:10:58;;;;;;;;;;;;;;;17.49;50.66;101421.16;5351915;26;1268;-54
2024/04/11 02:13:23;;;;;;;;;;;;;;;16.70;52.60;101435.25;5351529;26;1338;-56
2024/04/11 02:15:49;;;;;;;;;;;;;;;16.46;53.12;101431.16;5351877;26;1855;-55
2024/04/11 02:18:14;;;;;;;;;;;;;;;16.23;53.57;101435.84;5351670;26;1298;-53
2024/04/11 02:20:41;;;;;;;;;;;;;;;16.17;53.65;101439.59;5352001;26;1144;-53
2024/04/11 02:23:07;;;;;;;;;;;;;;;17.56;50.58;101427.28;5352302;26;1121;-51
2024/04/11 02:25:32;;;;;;;;;;;;;;;17.12;51.45;101435.72;5351253;26;1084;-51
2024/04/11 02:27:58;;;;;;;;;;;;;;;16.55;52.92;101432.34;5351858;26;1164;-55
2024/04/11 02:30:26;;;;;;;;;;;;;;;16.37;53.17;101436.28;5351827;26;1310;-55
2024/04/11 02:32:52;;;;;;;;;;;;;;;16.14;53.66;101437.34;5351597;26;1289;-55
2024/04/11 02:35:18;;;;;;;;;;;;;;;15.99;53.74;101446.19;5351622;26;1256;-54
2024/04/11 02:37:44;;;;;;;;;;;;;;;17.07;51.79;101440.06;5351231;26;1814;-56
2024/04/11 02:40:09;;;;;;;;;;;;;;;17.79;49.65;101437.88;5351969;26;1247;-54
2024/04/11 02:42:37;;;;;;;;;;;;;;;16.81;52.12;101449.13;5351988;26;1148;-55
2024/04/11 02:45:03;;;;;;;;;;;;;;;16.41;53.24;101456.63;5351306;26;1287;-55
2024/04/11 02:47:29;;;;;;;;;;;;;;;16.32;53.15;101444.44;5350891;26;1492;-53
2024/04/11 02:49:56;;;;;;;;;;;;;;;16.12;53.68;101455.97;5345666;26;2920;-55
2024/04/11 02:52:23;;;;;;;;;;;;;;;17.07;51.72;101462.06;5335935;26;1259;-56
2024/04/11 02:54:49;;;;;;;;;;;;;;;17.64;50.05;101459.75;5350607;26;1227;-55
2024/04/11 02:57:16;;;;;;;;;;;;;;;16.77;52.22;101457.88;5350636;26;1822;-55
2024/04/11 02:59:41;;;;;;;;;;;;;;;16.41;53.08;101462.94;5349703;26;1358;-55
2024/04/11 03:02:08;;;;;;;;;;;;;;;16.24;53.31;101460.28;5350441;26;1077;-54
2024/04/11 03:04:33;;;;;;;;;;;;;;;16.10;53.61;101463.63;5350560;26;1390;-54
2024/04/11 03:06:59;;;;;;;;;;;;;;;17.38;51.08;101462.31;5350661;26;1511;-55
2024/04/11 03:09:24;;;;;;;;;;;;;;;17.34;50.81;101455.69;5350135;26;1393;-54
2024/04/11 03:11:50;;;;;;;;;;;;;;;16.67;52.56;101470.66;5350697;26;1125;-53
2024/04/11 03:14:15;;;;;;;;;;;;;;;16.42;53.03;101467.38;5349924;26;1172;-55
2024/04/11 03:16:41;;;;;;;;;;;;;;;16.26;53.38;101462.75;5350401;26;1826;-56
2024/04/11 03:19:07;;;;;;;;;;;;;;;16.78;52.59;101466.94;5350482;26;1512;-55
2024/04/11 03:21:32;;;;;;;;;;;;;;;17.87;49.69;101469.56;5350761;26;3003;-55
2024/04/11 03:23:58;;;;;;;;;;;;;;;16.90;52.29;101473.16;5350162;26;1331;-54
2024/04/11 03:26:23;;;;;;;;;;;;;;;16.58;52.60;101473.03;5350087;26;1223;-53
2024/04/11 03:28:49;;;;;;;;;;;;;;;16.22;53.60;101480.81;5350113;26;1402;-53
2024/04/11 03:31:17;;;;;;;;;;;;;;;16.14;53.56;101484.81;5350947;26;1131;-56
2024/04/11 03:33:43;;;;;;;;;;;;;;;16.05;53.99;101472.63;5350018;26;1246;-54
2024/04/11 03:36:12;;;;;;;;;;;;;;;16.70;52.92;101483.88;5350125;26;1851;-53
2024/04/11 03:38:38;;;;;;;;;;;;;;;17.88;49.69;101481.38;5349305;26;1132;-52
2024/04/11 03:41:04;;;;;;;;;;;;;;;16.83;52.18;101488.13;5349155;26;1300;-53
2024/04/11 03:43:31;;;;;;;;;;;;;;;16.51;53.15;101495.19;5350000;26;1255;-51
2024/04/11 03:46:04;;;;;;;;;;;;;;;16.30;53.58;101496.00;5349975;26;1321;-49
2024/04/11 03:48:30;;;;;;;;;;;;;;;16.14;53.78;101500.47;5350256;26;1152;-53
2024/04/11 03:50:56;;;;;;;;;;;;;;;16.49;53.48;101513.81;5349835;26;2810;-53
2024/04/11 03:53:22;;;;;;;;;;;;;;;17.78;49.98;101512.38;5350216;26;1401;-56
2024/04/11 03:55:47;;;;;;;;;;;;;;;16.88;52.12;101512.91;5349869;26;1830;-48
2024/04/11 03:58:16;;;;;;;;;;;;;;;16.43;53.16;101517.59;5349705;26;1254;-49
2024/04/11 04:00:45;;;;;;;;;;;;;;;16.25;53.55;101515.97;5346908;26;1128;-49
2024/04/11 04:03:11;;;;;;;;;;;;;;;16.12;53.83;101530.03;5330326;26;1223;-48
2024/04/11 04:05:36;;;;;;;;;;;;;;;16.34;53.58;101521.84;5348100;26;1223;-54
2024/04/11 04:08:04;;;;;;;;;;;;;;;17.58;50.42;101511.13;5348765;26;1355;-47
2024/04/11 04:10:31;;;;;;;;;;;;;;;16.47;52.41;101523.41;5349783;26;1216;-57
2024/04/11 04:12:58;;;;;;;;;;;;;;;16.14;51.70;101519.66;5349428;26;1171;-51
2024/04/11 04:15:24;;;;;;;;;;;;;;;16.36;52.15;101534.25;5349467;26;1137;-53
2024/04/11 04:17:53;;;;;;;;;;;;;;;16.79;52.19;101548.25;5349091;26;2222;-52
2024/04/11 04:20:19;;;;;;;;;;;;;;;16.43;52.56;101558.78;5352784;26;2812;-57
2024/04/11 04:22:45;;;;;;;;;;;;;;;18.16;49.75;101559.19;5349770;26;1199;-50
2024/04/11 04:25:11;;;;;;;;;;;;;;;16.99;51.34;101558.69;5348695;26;1171;-56
2024/04/11 04:27:37;;;;;;;;;;;;;;;16.46;51.14;101563.75;5349557;26;1128;-53
2024/04/11 04:30:09;;;;;;;;;;;;;;;17.14;51.53;101560.78;5349441;26;1296;-54
2024/04/11 04:32:38;;;;;;;;;;;;;;;16.56;51.34;101554.81;5349609;26;1116;-53
2024/04/11 04:35:09;;;;;;;;;;;;;;;16.36;50.36;101560.88;5350102;26;1263;-55
2024/04/11 04:37:39;;;;;;;;;;;;;;;17.74;50.48;101561.63;5349518;26;1822;-53
2024/04/11 04:40:06;;;;;;;;;;;;;;;16.74;51.20;101557.25;5349361;26;1117;-54
2024/04/11 04:42:31;;;;;;;;;;;;;;;16.46;50.46;101568.41;5318725;26;1192;-53
2024/04/11 04:44:57;;;;;;;;;;;;;;;16.39;49.51;101565.84;5349642;26;1176;-53
2024/04/11 04:47:28;;;;;;;;;;;;;;;17.60;50.71;101558.47;5348850;26;1290;-50
2024/04/11 04:49:55;;;;;;;;;;;;;;;16.71;51.20;101568.75;5348890;26;2816;-56
2024/04/11 04:52:24;;;;;;;;;;;;;;;16.40;50.35;101568.34;5348849;26;1231;-54
2024/04/11 04:54:53;;;;;;;;;;;;;;;16.22;49.64;101560.41;5348757;26;1243;-54
2024/04/11 04:57:19;;;;;;;;;;;;;;;16.14;48.77;101569.88;5348688;26;1829;-51
2024/04/11 04:59:45;;;;;;;;;;;;;;;17.27;50.16;101576.03;5348899;26;1129;-49
2024/04/11 05:02:11;;;;;;;;;;;;;;;16.47;50.77;101578.31;5348748;26;1052;-55
2024/04/11 05:04:37;;;;;;;;;;;;;;;16.29;49.79;101580.25;5348674;26;1270;-53
2024/04/11 05:07:03;;;;;;;;;;;;;;;17.51;49.79;101575.72;5348530;26;1432;-54
2024/04/11 05:09:29;;;;;;;;;;;;;;;16.58;50.80;101580.13;5348749;26;1354;-51
2024/04/11 05:11:55;;;;;;;;;;;;;;;16.37;49.85;101585.31;5348646;26;1187;-55
2024/04/11 05:14:23;;;;;;;;;;;;;;;16.36;49.51;101583.66;5345713;26;1555;-57
2024/04/11 05:16:50;;;;;;;;;;;;;;;17.09;50.35;101590.94;5337545;26;1852;-57
2024/04/11 05:19:17;;;;;;;;;;;;;;;16.55;50.13;101588.84;5345560;26;1140;-57
2024/04/11 05:21:43;;;;;;;;;;;;;;;16.26;49.59;101583.50;5351186;26;2913;-54
2024/04/11 05:24:11;;;;;;;;;;;;;;;17.09;50.29;101591.75;5350732;26;1217;-56
2024/04/11 05:26:37;;;;;;;;;;;;;;;16.98;50.40;101595.47;5350894;26;1095;-54
2024/04/11 05:29:04;;;;;;;;;;;;;;;16.57;49.94;101589.44;5351788;26;1203;-56
2024/04/11 05:31:30;;;;;;;;;;;;;;;17.55;49.81;101585.09;5351014;26;1112;-54
2024/04/11 05:33:59;;;;;;;;;;;;;;;16.74;50.46;101592.13;5351570;26;1140;-55
2024/04/11 05:36:25;;;;;;;;;;;;;;;16.49;49.77;101595.34;5351134;26;1829;-58
2024/04/11 05:38:51;;;;;;;;;;;;;;;17.88;49.27;101597.78;5351250;26;1158;-56
2024/04/11 05:41:16;;;;;;;;;;;;;;;16.90;50.55;101604.16;5351469;26;1255;-55
2024/04/11 05:43:42;;;;;;;;;;;;;;;16.52;49.94;101612.16;5351382;26;1228;-56
2024/04/11 05:46:10;;;;;;;;;;;;;;;16.48;48.97;101610.16;5351958;26;1213;-56
2024/04/11 05:48:37;;;;;;;;;;;;;;;16.32;48.46;101620.91;5352323;26;1167;-50
2024/04/11 05:51:05;;;;;;;;;;;;;;;17.73;49.17;101627.91;5351590;26;1156;-55
2024/04/11 05:53:36;;;;;;;;;;;;;;;16.81;50.10;101625.72;5352190;26;1267;-54
2024/04/11 05:56:06;;;;;;;;;;;;;;;16.62;49.24;101619.72;5352533;26;1841;-55
2024/04/11 05:58:31;;;;;;;;;;;;;;;17.43;49.77;101630.09;5351909;26;1216;-51
2024/04/11 06:01:00;;;;;;;;;;;;;;;16.85;50.23;101623.31;5351979;26;1448;-55
2024/04/11 06:03:29;;;;;;;;;;;;;;;16.62;49.42;101624.38;5351544;26;1270;-50
2024/04/11 06:05:55;;;;;;;;;;;;;;;16.46;48.72;101632.38;5352117;26;1116;-56
2024/04/11 06:08:23;;;;;;;;;;;;;;;17.05;49.32;101640.06;5351643;26;1287;-57
2024/04/11 06:10:49;;;;;;;;;;;;;;;16.88;49.86;101629.16;5351883;26;1290;-57
2024/04/11 06:13:16;;;;;;;;;;;;;;;16.55;49.37;101635.50;5351463;26;1267;-56
2024/04/11 06:15:47;;;;;;;;;;;;;;;17.74;48.92;101635.03;5351511;26;1099;-56
2024/04/11 06:18:14;;;;;;;;;;;;;;;16.82;50.13;101635.63;5330090;26;1860;-55
2024/04/11 06:20:40;;;;;;;;;;;;;;;16.66;49.20;101642.00;5351909;26;1231;-52
2024/04/11 06:23:09;;;;;;;;;;;;;;;17.48;49.42;101642.22;5351385;26;1258;-57
2024/04/11 06:25:37;;;;;;;;;;;;;;;16.84;49.62;101636.19;5351763;26;1216;-57
2024/04/11 06:28:04;;;;;;;;;;;;;;;16.80;49.49;101642.47;5351796;26;1073;-57
2024/04/11 06:30:29;;;;;;;;;;;;;;;17.24;49.65;101643.34;5350716;26;1163;-57
2024/04/11 06:32:58;;;;;;;;;;;;;;;16.81;49.50;101649.63;5351989;26;1200;-57
2024/04/11 06:35:25;;;;;;;;;;;;;;;16.55;49.32;101652.84;5351678;26;1243;-56
2024/04/11 06:37:51;;;;;;;;;;;;;;;17.75;48.79;101648.56;5351264;26;1821;-57
2024/04/11 06:40:16;;;;;;;;;;;;;;;16.93;49.60;101648.44;5351592;26;1084;-56
2024/04/11 06:42:47;;;;;;;;;;;;;;;16.66;49.08;101652.97;5351379;26;1219;-55
2024/04/11 06:45:14;;;;;;;;;;;;;;;16.51;48.66;101657.16;5350883;26;1303;-57
2024/04/11 06:47:40;;;;;;;;;;;;;;;16.47;47.85;101655.19;5351694;26;1371;-57
2024/04/11 06:50:06;;;;;;;;;;;;;;;17.53;48.64;101650.50;5351452;26;1238;-57
2024/04/11 06:52:32;;;;;;;;;;;;;;;16.82;49.34;101652.13;5351245;26;1167;-57
2024/04/11 06:54:58;;;;;;;;;;;;;;;16.73;49.05;101648.13;5351447;26;1283;-56
2024/04/11 06:57:26;;;;;;;;;;;;;;;17.57;48.85;101646.16;5351128;26;1865;-57
2024/04/11 06:59:52;;;;;;;;;;;;;;;16.88;49.59;101653.88;5351207;26;1291;-55
2024/04/11 07:02:18;;;;;;;;;;;;;;;16.75;48.76;101646.81;5351280;26;1216;-51
2024/04/11 07:04:44;;;;;;;;;;;;;;;16.50;48.58;101646.44;5351239;26;1248;-58
2024/04/11 07:07:09;;;;;;;;;;;;;;;16.49;48.03;101653.81;5350875;26;1244;-57
2024/04/11 07:09:38;;;;;;;;;;;;;;;16.32;47.93;101653.84;5351311;26;1600;-58
2024/04/11 07:12:04;;;;;;;;;;;;;;;17.47;48.59;101657.88;5351053;26;1184;-57
2024/04/11 07:14:31;;;;;;;;;;;;;;;16.87;49.73;101657.69;5350682;26;1168;-58
2024/04/11 07:16:56;;;;;;;;;;;;;;;16.57;49.16;101656.16;5350931;26;1833;-59
2024/04/11 07:19:22;;;;;;;;;;;;;;;16.45;49.08;101654.59;5351123;26;1244;-57
2024/04/11 07:21:48;;;;;;;;;;;;;;;17.72;48.41;101645.50;5351154;26;1267;-57
2024/04/11 07:24:13;;;;;;;;;;;;;;;16.89;49.43;101662.97;5350971;26;1207;-58
2024/04/11 07:26:40;;;;;;;;;;;;;;;17.45;49.44;101652.63;5350629;26;1152;-57
2024/04/11 07:29:06;;;;;;;;;;;;;;;17.54;49.49;101660.44;5350175;26;1124;-57
2024/04/11 07:31:32;;;;;;;;;;;;;;;16.95;49.56;101655.63;5350758;26;1261;-56
2024/04/11 07:34:02;;;;;;;;;;;;;;;16.75;49.06;101648.72;5350550;26;1295;-56
2024/04/11 07:36:32;;;;;;;;;;;;;;;16.71;48.49;101648.38;5350576;26;1877;-53
2024/04/11 07:38:58;;;;;;;;;;;;;;;16.55;48.17;101641.84;5350570;26;1268;-58
2024/04/11 07:41:44;;;;;;;;;;;;;;;16.61;48.45;101648.25;5350841;26;1151;-56
2024/04/11 07:44:11;;;;;;;;;;;;;;;17.32;49.27;101650.31;5349527;26;1239;-54
2024/04/11 07:46:37;;;;;;;;;;;;;;;16.81;49.30;101644.13;5349894;26;1510;-57
2024/04/11 07:49:07;;;;;;;;;;;;;;;16.65;48.84;101643.91;5350435;26;1117;-55
2024/04/11 07:51:36;;;;;;;;;;;;;;;16.54;48.36;101639.38;5350362;26;968;-56
2024/04/11 07:54:04;;;;;;;;;;;;;;;17.48;48.57;101636.72;5350078;26;1290;-56
2024/04/11 07:56:29;;;;;;;;;;;;;;;16.81;49.21;101638.63;5350300;26;1830;-57
2024/04/11 07:58:58;;;;;;;;;;;;;;;16.60;49.04;101633.69;5350247;26;1192;-57
2024/04/11 08:01:36;;;;;;;;;;;;;;;16.65;48.83;101634.84;5350333;26;1160;-54
2024/04/11 08:04:03;;;;;;;;;;;;;;;17.33;49.01;101629.94;5349777;26;1125;-58
2024/04/11 08:06:29;;;;;;;;;;;;;;;16.85;49.37;101617.81;5350234;26;1203;-55
2024/04/11 08:08:56;;;;;;;;;;;;;;;17.27;49.18;101622.75;5350138;26;1156;-57
2024/04/11 08:11:22;;;;;;;;;;;;;;;17.24;49.55;101631.53;5350472;26;1176;-58
2024/04/11 08:13:48;;;;;;;;;;;;;;;16.85;49.42;101626.06;5349988;26;1244;-56
2024/04/11 08:16:13;;;;;;;;;;;;;;;17.05;49.18;101633.75;5349207;26;1834;-53
2024/04/11 08:18:39;;;;;;;;;;;;;;;17.39;49.31;101634.44;5349973;26;1286;-55
2024/04/11 08:21:08;;;;;;;;;;;;;;;16.94;49.42;101632.78;5350001;26;1219;-57
2024/04/11 08:23:34;;;;;;;;;;;;;;;16.86;48.68;101623.06;5349628;26;1279;-57
2024/04/11 08:26:00;;;;;;;;;;;;;;;17.07;48.92;101632.41;5349942;26;1173;-52
2024/04/11 08:28:27;;;;;;;;;;;;;;;17.33;49.43;101632.69;5349184;26;1255;-54
2024/04/11 08:30:53;;;;;;;;;;;;;;;16.93;49.25;101620.97;5350177;26;1247;-56
2024/04/11 08:33:20;;;;;;;;;;;;;;;16.79;48.72;101629.81;5349827;26;1121;-57
2024/04/11 08:35:52;;;;;;;;;;;;;;;17.45;49.01;101635.31;5349805;26;1366;-56
2024/04/11 08:38:22;;;;;;;;;;;;;;;16.95;49.25;101628.97;5349935;26;1161;-58
2024/04/11 08:40:49;;;;;;;;;;;;;;;16.81;49.00;101633.16;5349126;26;1200;-56
2024/04/11 08:43:19;;;;;;;;;;;;;;;16.72;48.43;101630.84;5349726;26;1358;-54
2024/04/11 08:45:45;;;;;;;;;;;;;;;16.50;48.43;101628.03;5319840;26;1129;-54
2024/04/11 08:48:11;;;;;;;;;;;;;;;16.45;48.06;101629.88;5349469;26;1204;-56
2024/04/11 08:50:45;;;;;;;;;;;;;;;17.44;48.45;101631.72;5349478;26;1306;-57
2024/04/11 08:53:11;;;;;;;;;;;;;;;16.83;49.11;101637.31;5318949;26;1253;-52
2024/04/11 08:55:36;;;;;;;;;;;;;;;16.69;48.72;101625.84;5316509;26;1279;-56
2024/04/11 08:58:02;;;;;;;;;;;;;;;16.60;48.43;101627.38;5339252;26;1814;-56
2024/04/11 09:00:28;;;;;;;;;;;;;;;17.59;48.22;101628.31;5353094;26;1236;-55
2024/04/11 09:02:55;;;;;;;;;;;;;;;16.93;49.08;101628.41;5352978;26;1215;-55
2024/04/11 09:05:22;;;;;;;;;;;;;;;16.77;48.82;101627.31;5352251;26;1160;-52
2024/04/11 09:07:47;;;;;;;;;;;;;;;16.66;48.60;101629.13;5352511;26;1251;-56
2024/04/11 09:10:13;;;;;;;;;;;;;;;17.78;48.15;101628.78;5352564;26;1264;-56
2024/04/11 09:12:46;;;;;;;;;;;;;;;16.92;49.33;101624.81;5352772;26;1278;-49
2024/04/11 09:15:15;;;;;;;;;;;;;;;16.81;49.05;101633.16;5352552;26;1279;-55
2024/04/11 09:17:41;;;;;;;;;;;;;;;16.66;48.74;101642.00;5352423;26;1825;-53
2024/04/11 09:20:12;;;;;;;;;;;;;;;16.58;48.39;101635.03;5352711;26;1176;-53
2024/04/11 09:22:45;;;;;;;;;;;;;;;17.77;48.20;101624.38;5352414;26;1160;-56
2024/04/11 09:25:11;;;;;;;;;;;;;;;17.00;49.24;101625.44;5322266;26;1173;-50
2024/04/11 09:27:37;;;;;;;;;;;;;;;16.74;49.13;101636.88;5351421;26;1188;-52
2024/04/11 09:30:03;;;;;;;;;;;;;;;16.80;48.44;101635.03;5352612;26;1211;-54
2024/04/11 09:32:30;;;;;;;;;;;;;;;16.68;48.32;101642.59;5352466;26;1231;-51
2024/04/11 09:34:56;;;;;;;;;;;;;;;16.60;47.87;101630.94;5322050;26;1279;-51
2024/04/11 09:37:23;;;;;;;;;;;;;;;17.49;48.62;101650.22;5322139;26;1829;-53
2024/04/11 09:39:49;;;;;;;;;;;;;;;16.91;49.14;101647.03;5321900;26;1269;-49
2024/04/11 09:42:18;;;;;;;;;;;;;;;16.67;48.89;101643.66;5321900;26;1311;-50
2024/04/11 09:44:46;;;;;;;;;;;;;;;16.55;48.56;101657.47;5352302;26;1251;-51
2024/04/11 09:47:19;;;;;;;;;;;;;;;16.52;48.21;101653.34;5352361;26;1167;-58
2024/04/11 09:49:53;;;;;;;;;;;;;;;16.39;47.96;101651.75;5352299;26;1152;-58
2024/04/11 09:52:26;;;;;;;;;;;;;;;16.77;48.26;101660.28;5352148;26;1405;-58
2024/04/11 09:54:51;;;;;;;;;;;;;;;17.10;49.03;101647.56;5352764;26;1161;-57
2024/04/11 09:57:18;;;;;;;;;;;;;;;16.61;49.12;101656.50;5352235;26;1874;-55
2024/04/11 09:59:43;;;;;;;;;;;;;;;16.59;48.78;101653.16;5352090;26;1159;-55
2024/04/11 10:02:09;;;;;;;;;;;;;;;16.51;48.00;101645.34;5352123;26;1161;-58
2024/04/11 10:04:36;;;;;;;;;;;;;;;17.61;48.07;101650.91;5351693;26;1238;-58
2024/04/11 10:07:08;;;;;;;;;;;;;;;16.92;48.92;101652.28;5328569;26;1233;-57
2024/04/11 10:09:34;;;;;;;;;;;;;;;16.71;48.57;101644.81;5351677;26;1282;-57
2024/04/11 10:12:03;;;;;;;;;;;;;;;17.42;48.58;101655.09;5351895;26;1164;-56
2024/04/11 10:14:30;;;;;;;;;;;;;;;16.84;48.86;101655.44;5351740;26;1306;-57
2024/04/11 10:17:01;;;;;;;;;;;;;;;16.72;48.66;101665.72;5315409;26;1810;-54
2024/04/11 10:19:28;;;;;;;;;;;;;;;17.63;48.31;101661.63;5343277;26;1299;-56
2024/04/11 10:22:00;;;;;;;;;;;;;;;16.94;49.28;101652.00;5351736;26;1294;-55
2024/04/11 10:24:31;;;;;;;;;;;;;;;16.73;48.85;101654.47;5351929;26;1219;-54
2024/04/11 10:27:03;;;;;;;;;;;;;;;16.81;48.73;101664.19;5351462;26;1250;-52
2024/04/11 10:29:29;;;;;;;;;;;;;;;17.17;49.05;101661.94;5351612;26;1044;-56
2024/04/11 10:31:58;;;;;;;;;;;;;;;16.79;48.97;101665.50;5321054;26;1217;-56
2024/04/11 10:34:37;;;;;;;;;;;;;;;16.75;48.39;101651.47;5351603;26;1171;-55
2024/04/11 10:37:07;;;;;;;;;;;;;;;16.72;48.34;101665.72;5351764;26;1852;-53
2024/04/11 10:39:35;;;;;;;;;;;;;;;17.36;48.72;101653.34;5351573;26;1139;-56
2024/04/11 10:42:14;;;;;;;;;;;;;;;16.85;48.84;101656.28;5350591;26;1064;-56
2024/04/11 10:44:39;;;;;;;;;;;;;;;17.05;48.83;101655.72;5351634;26;1105;-49
2024/04/11 10:47:07;;;;;;;;;;;;;;;17.38;48.81;101649.25;5351150;26;1319;-49
2024/04/11 10:49:41;;;;;;;;;;;;;;;16.97;49.17;101643.28;5351597;26;1244;-49
2024/04/11 10:52:12;;;;;;;;;;;;;;;16.71;48.73;101650.31;5351008;26;1306;-54
2024/04/11 10:54:45;;;;;;;;;;;;;;;16.65;48.46;101643.06;5351253;26;1216;-56
2024/04/11 10:57:14;;;;;;;;;;;;;;;16.55;47.88;101652.84;5351192;26;1822;-53
2024/04/11 10:59:50;;;;;;;;;;;;;;;17.06;48.12;101657.41;5351623;26;1204;-51
2024/04/11 11:02:23;;;;;;;;;;;;;;;17.01;48.99;101658.19;5328897;26;1263;-50
2024/04/11 11:04:50;;;;;;;;;;;;;;;16.69;48.88;101652.47;5348522;26;1192;-55
2024/04/11 11:07:20;;;;;;;;;;;;;;;16.57;48.32;101650.66;5330259;26;1176;-58
2024/04/11 11:09:51;;;;;;;;;;;;;;;17.51;48.48;101647.19;5351433;26;1268;-52
2024/04/11 11:12:18;;;;;;;;;;;;;;;16.84;49.21;101644.44;5350839;26;1331;-53
2024/04/11 11:14:44;;;;;;;;;;;;;;;16.72;48.48;101652.81;5350940;26;1215;-56
2024/04/11 11:17:17;;;;;;;;;;;;;;;16.58;48.22;101657.00;5320419;26;1831;-57
2024/04/11 11:19:49;;;;;;;;;;;;;;;17.78;48.09;101658.19;5350670;26;1534;-55
2024/04/11 11:22:33;;;;;;;;;;;;;;;16.90;49.27;101661.84;5350961;26;1371;-55
2024/04/11 11:25:00;;;;;;;;;;;;;;;16.69;48.72;101655.22;5351125;26;1168;-54
2024/04/11 11:27:28;;;;;;;;;;;;;;;16.58;48.40;101646.84;5350611;26;1212;-56
2024/04/11 11:29:57;;;;;;;;;;;;;;;17.12;48.49;101663.78;5350740;26;1060;-57
2024/04/11 11:32:25;;;;;;;;;;;;;;;17.20;48.95;101666.91;5350491;26;1363;-55
2024/04/11 11:34:51;;;;;;;;;;;;;;;16.87;48.78;101659.59;5350878;26;1255;-56
2024/04/11 11:37:21;;;;;;;;;;;;;;;18.12;48.20;101653.31;5320478;26;1839;-56
2024/04/11 11:39:50;;;;;;;;;;;;;;;17.16;49.46;101642.97;5350846;26;1164;-56
2024/04/11 11:47:46;;;;;;;;;;;;;;;16.81;47.62;101646.88;5350777;26;1417;-56
2024/04/11 11:50:19;;;;;;;;;;;;;;;17.53;48.99;101647.75;5350656;26;1208;-55
2024/04/11 11:52:49;;;;;;;;;;;;;;;16.99;49.23;101660.34;5350170;26;1251;-54
2024/04/11 11:55:17;;;;;;;;;;;;;;;16.87;48.53;101643.97;5350453;26;1299;-57
2024/04/11 11:57:54;;;;;;;;;;;;;;;17.03;48.98;101645.00;5350545;26;1830;-59
2024/04/11 12:00:22;;;;;;;;;;;;;;;17.24;49.27;101642.50;5322436;26;1252;-58
2024/04/11 12:02:59;;;;;;;;;;;;;;;17.02;48.67;101635.09;5349834;26;1192;-57
2024/04/11 12:05:28;;;;;;;;;;;;;;;17.16;48.86;101632.78;5350261;26;1207;-57
2024/04/11 12:08:05;;;;;;;;;;;;;;;17.30;49.10;101635.97;5350459;26;1163;-55
2024/04/11 12:11:16;;;;;;;;;;;;;;;17.00;48.69;101620.78;5350377;26;1256;-57
2024/04/11 12:13:30;;;;;;;;;;;;;;;16.79;48.55;101616.06;5318348;26;1575;-60
2024/04/11 12:15:56;;;;;;;;;;;;;;;16.65;47.94;101623.84;5350624;26;1834;-58
2024/04/11 12:18:22;;;;;;;;;;;;;;;16.57;47.82;101616.88;5349470;26;1140;-54
2024/04/11 12:20:57;;;;;;;;;;;;;;;16.91;47.79;101627.81;5350259;26;1197;-58
2024/04/11 12:23:28;;;;;;;;;;;;;;;17.24;48.93;101613.09;5327953;26;1161;-58
2024/04/11 12:25:55;;;;;;;;;;;;;;;16.80;49.02;101618.56;5349656;26;1108;-56
2024/04/11 12:28:21;;;;;;;;;;;;;;;16.83;48.21;101615.34;5349239;26;1180;-57
2024/04/11 12:30:50;;;;;;;;;;;;;;;17.27;49.14;101614.50;5349402;26;1159;-55
2024/04/11 12:33:16;;;;;;;;;;;;;;;16.85;48.96;101602.16;5350553;26;1188;-57
2024/04/11 12:35:45;;;;;;;;;;;;;;;17.91;48.62;101610.22;5349760;26;1175;-57
2024/04/11 12:38:17;;;;;;;;;;;;;;;17.21;49.49;101615.53;5349837;26;1847;-58
2024/04/11 12:40:48;;;;;;;;;;;;;;;16.87;49.23;101607.41;5349716;26;1276;-58
2024/04/11 12:43:20;;;;;;;;;;;;;;;16.81;48.58;101613.91;5349931;26;1242;-57
2024/04/11 12:45:54;;;;;;;;;;;;;;;16.75;47.99;101610.28;5349675;26;1382;-53
2024/04/11 12:48:23;;;;;;;;;;;;;;;17.06;48.50;101614.25;5349903;26;1113;-58
2024/04/11 12:50:55;;;;;;;;;;;;;;;17.41;49.30;101610.25;5349753;26;1248;-53
2024/04/11 12:53:21;;;;;;;;;;;;;;;16.98;49.11;101611.13;5349573;26;1292;-57
2024/04/11 12:55:52;;;;;;;;;;;;;;;18.17;48.62;101605.72;5349270;26;1136;-57